sensor_id;sensor_type;location;lat;lon;timestamp;P1;durP1;ratioP1;P2;durP2;ratioP2
70899;SDS011;67902;52.154;5.430;2023-04-28T00:02:00;10.63;;;3.53;;
70899;SDS011;67902;52.154;5.430;2023-04-28T00:04:27;7.93;;;3.35;;
70899;SDS011;67902;52.154;5.430;2023-04-28T00:06:54;9.55;;;4.35;;
70899;SDS011;67902;52.154;5.430;2023-04-28T00:09:20;10.20;;;3.90;;
70899;SDS011;67902;52.154;5.430;2023-04-28T00:11:47;10.73;;;4.20;;
70899;SDS011;67902;52.154;5.430;2023-04-28T00:14:13;8.75;;;3.85;;
70899;SDS011;67902;52.154;5.430;2023-04-28T00:16:40;9.48;;;4.03;;
70899;SDS011;67902;52.154;5.430;2023-04-28T00:19:07;9.27;;;3.72;;
70899;SDS011;67902;52.154;5.430;2023-04-28T00:21:33;14.15;;;3.95;;
70899;SDS011;67902;52.154;5.430;2023-04-28T00:24:00;8.75;;;3.58;;
70899;SDS011;67902;52.154;5.430;2023-04-28T00:26:26;10.32;;;3.80;;
70899;SDS011;67902;52.154;5.430;2023-04-28T00:28:52;9.63;;;3.70;;
70899;SDS011;67902;52.154;5.430;2023-04-28T00:31:19;10.80;;;4.00;;
70899;SDS011;67902;52.154;5.430;2023-04-28T00:33:45;11.13;;;4.00;;
70899;SDS011;67902;52.154;5.430;2023-04-28T00:36:12;12.50;;;3.90;;
70899;SDS011;67902;52.154;5.430;2023-04-28T00:38:38;9.73;;;3.85;;
70899;SDS011;67902;52.154;5.430;2023-04-28T00:41:04;10.98;;;3.78;;
70899;SDS011;67902;52.154;5.430;2023-04-28T00:43:31;8.73;;;3.60;;
70899;SDS011;67902;52.154;5.430;2023-04-28T00:46:17;12.65;;;3.72;;
70899;SDS011;67902;52.154;5.430;2023-04-28T00:48:47;13.98;;;3.67;;
70899;SDS011;67902;52.154;5.430;2023-04-28T00:51:14;10.52;;;3.58;;
70899;SDS011;67902;52.154;5.430;2023-04-28T00:53:41;8.75;;;3.47;;
70899;SDS011;67902;52.154;5.430;2023-04-28T00:56:08;9.52;;;3.83;;
70899;SDS011;67902;52.154;5.430;2023-04-28T00:58:36;12.10;;;4.15;;
70899;SDS011;67902;52.154;5.430;2023-04-28T01:01:03;9.43;;;3.72;;
70899;SDS011;67902;52.154;5.430;2023-04-28T01:03:33;10.90;;;3.53;;
70899;SDS011;67902;52.154;5.430;2023-04-28T01:06:03;9.60;;;4.32;;
70899;SDS011;67902;52.154;5.430;2023-04-28T01:08:31;11.77;;;3.47;;
70899;SDS011;67902;52.154;5.430;2023-04-28T01:10:58;9.02;;;3.67;;
70899;SDS011;67902;52.154;5.430;2023-04-28T01:13:25;12.38;;;3.85;;
70899;SDS011;67902;52.154;5.430;2023-04-28T01:15:51;10.00;;;3.50;;
70899;SDS011;67902;52.154;5.430;2023-04-28T01:18:18;13.27;;;3.78;;
70899;SDS011;67902;52.154;5.430;2023-04-28T01:20:45;9.43;;;3.70;;
70899;SDS011;67902;52.154;5.430;2023-04-28T01:23:11;10.10;;;3.88;;
70899;SDS011;67902;52.154;5.430;2023-04-28T01:25:38;11.57;;;4.05;;
70899;SDS011;67902;52.154;5.430;2023-04-28T01:28:05;9.43;;;3.38;;
70899;SDS011;67902;52.154;5.430;2023-04-28T01:30:32;12.70;;;4.07;;
70899;SDS011;67902;52.154;5.430;2023-04-28T01:35:27;9.93;;;3.67;;
70899;SDS011;67902;52.154;5.430;2023-04-28T01:37:54;10.05;;;3.92;;
70899;SDS011;67902;52.154;5.430;2023-04-28T01:40:20;10.45;;;4.35;;
70899;SDS011;67902;52.154;5.430;2023-04-28T01:42:46;8.98;;;3.63;;
70899;SDS011;67902;52.154;5.430;2023-04-28T01:45:13;9.98;;;3.60;;
70899;SDS011;67902;52.154;5.430;2023-04-28T01:47:39;11.40;;;3.92;;
70899;SDS011;67902;52.154;5.430;2023-04-28T01:50:06;10.02;;;3.80;;
70899;SDS011;67902;52.154;5.430;2023-04-28T01:52:32;9.93;;;4.07;;
70899;SDS011;67902;52.154;5.430;2023-04-28T01:54:59;10.85;;;4.32;;
70899;SDS011;67902;52.154;5.430;2023-04-28T01:57:25;9.00;;;3.58;;
70899;SDS011;67902;52.154;5.430;2023-04-28T01:59:54;8.57;;;3.70;;
70899;SDS011;67902;52.154;5.430;2023-04-28T02:02:21;11.90;;;4.18;;
70899;SDS011;67902;52.154;5.430;2023-04-28T02:04:47;11.57;;;3.80;;
70899;SDS011;67902;52.154;5.430;2023-04-28T02:07:13;8.73;;;3.92;;
70899;SDS011;67902;52.154;5.430;2023-04-28T02:09:40;9.35;;;3.72;;
70899;SDS011;67902;52.154;5.430;2023-04-28T02:12:06;12.52;;;3.85;;
70899;SDS011;67902;52.154;5.430;2023-04-28T02:14:33;11.55;;;4.15;;
70899;SDS011;67902;52.154;5.430;2023-04-28T02:16:59;9.63;;;3.80;;
70899;SDS011;67902;52.154;5.430;2023-04-28T02:19:28;9.23;;;3.72;;
70899;SDS011;67902;52.154;5.430;2023-04-28T02:21:54;10.73;;;4.25;;
70899;SDS011;67902;52.154;5.430;2023-04-28T02:24:20;9.95;;;3.83;;
70899;SDS011;67902;52.154;5.430;2023-04-28T02:26:47;10.23;;;4.43;;
70899;SDS011;67902;52.154;5.430;2023-04-28T02:29:14;12.77;;;4.20;;
70899;SDS011;67902;52.154;5.430;2023-04-28T02:31:40;11.07;;;3.90;;
70899;SDS011;67902;52.154;5.430;2023-04-28T02:34:07;11.60;;;3.80;;
70899;SDS011;67902;52.154;5.430;2023-04-28T02:36:33;11.57;;;3.85;;
70899;SDS011;67902;52.154;5.430;2023-04-28T02:38:59;10.23;;;3.85;;
70899;SDS011;67902;52.154;5.430;2023-04-28T02:41:26;8.50;;;3.47;;
70899;SDS011;67902;52.154;5.430;2023-04-28T02:43:52;8.50;;;3.72;;
70899;SDS011;67902;52.154;5.430;2023-04-28T02:46:20;7.63;;;3.67;;
70899;SDS011;67902;52.154;5.430;2023-04-28T02:48:46;9.88;;;3.72;;
70899;SDS011;67902;52.154;5.430;2023-04-28T02:51:12;10.23;;;3.40;;
70899;SDS011;67902;52.154;5.430;2023-04-28T02:53:39;11.88;;;3.72;;
70899;SDS011;67902;52.154;5.430;2023-04-28T02:56:05;9.50;;;3.88;;
70899;SDS011;67902;52.154;5.430;2023-04-28T02:58:32;8.52;;;3.53;;
70899;SDS011;67902;52.154;5.430;2023-04-28T03:00:58;11.45;;;3.65;;
70899;SDS011;67902;52.154;5.430;2023-04-28T03:03:25;8.70;;;3.30;;
70899;SDS011;67902;52.154;5.430;2023-04-28T03:05:52;11.73;;;3.80;;
70899;SDS011;67902;52.154;5.430;2023-04-28T03:08:18;10.13;;;3.20;;
70899;SDS011;67902;52.154;5.430;2023-04-28T03:10:45;10.52;;;4.15;;
70899;SDS011;67902;52.154;5.430;2023-04-28T03:13:12;9.68;;;3.38;;
70899;SDS011;67902;52.154;5.430;2023-04-28T03:15:38;12.00;;;4.18;;
70899;SDS011;67902;52.154;5.430;2023-04-28T03:18:05;9.05;;;3.42;;
70899;SDS011;67902;52.154;5.430;2023-04-28T03:20:31;10.98;;;3.63;;
70899;SDS011;67902;52.154;5.430;2023-04-28T03:22:58;8.60;;;3.72;;
70899;SDS011;67902;52.154;5.430;2023-04-28T03:25:24;10.07;;;3.83;;
70899;SDS011;67902;52.154;5.430;2023-04-28T03:27:51;10.52;;;3.80;;
70899;SDS011;67902;52.154;5.430;2023-04-28T03:30:17;11.20;;;4.07;;
70899;SDS011;67902;52.154;5.430;2023-04-28T03:32:43;10.20;;;4.10;;
70899;SDS011;67902;52.154;5.430;2023-04-28T03:35:10;13.20;;;4.00;;
70899;SDS011;67902;52.154;5.430;2023-04-28T03:37:36;10.57;;;3.92;;
70899;SDS011;67902;52.154;5.430;2023-04-28T03:40:03;11.02;;;4.20;;
70899;SDS011;67902;52.154;5.430;2023-04-28T03:42:29;12.27;;;4.20;;
70899;SDS011;67902;52.154;5.430;2023-04-28T03:44:56;12.85;;;4.07;;
70899;SDS011;67902;52.154;5.430;2023-04-28T03:47:22;10.88;;;4.20;;
70899;SDS011;67902;52.154;5.430;2023-04-28T03:49:49;10.55;;;4.22;;
70899;SDS011;67902;52.154;5.430;2023-04-28T03:52:15;12.50;;;4.60;;
70899;SDS011;67902;52.154;5.430;2023-04-28T03:54:42;9.50;;;4.13;;
70899;SDS011;67902;52.154;5.430;2023-04-28T03:57:08;9.90;;;4.18;;
70899;SDS011;67902;52.154;5.430;2023-04-28T03:59:34;10.68;;;4.13;;
70899;SDS011;67902;52.154;5.430;2023-04-28T04:02:01;11.57;;;4.57;;
70899;SDS011;67902;52.154;5.430;2023-04-28T04:04:27;9.65;;;4.03;;
70899;SDS011;67902;52.154;5.430;2023-04-28T04:06:54;10.43;;;3.72;;
70899;SDS011;67902;52.154;5.430;2023-04-28T04:09:21;10.85;;;4.15;;
70899;SDS011;67902;52.154;5.430;2023-04-28T04:11:47;9.95;;;3.83;;
70899;SDS011;67902;52.154;5.430;2023-04-28T04:14:13;11.88;;;4.40;;
70899;SDS011;67902;52.154;5.430;2023-04-28T04:16:40;12.20;;;5.05;;
70899;SDS011;67902;52.154;5.430;2023-04-28T04:19:06;9.68;;;3.88;;
70899;SDS011;67902;52.154;5.430;2023-04-28T04:21:33;9.70;;;4.00;;
70899;SDS011;67902;52.154;5.430;2023-04-28T04:23:59;15.50;;;4.30;;
70899;SDS011;67902;52.154;5.430;2023-04-28T04:26:26;12.82;;;4.25;;
70899;SDS011;67902;52.154;5.430;2023-04-28T04:28:52;12.00;;;4.20;;
70899;SDS011;67902;52.154;5.430;2023-04-28T04:31:19;9.98;;;3.72;;
70899;SDS011;67902;52.154;5.430;2023-04-28T04:33:45;10.88;;;4.07;;
70899;SDS011;67902;52.154;5.430;2023-04-28T04:36:12;10.65;;;3.88;;
70899;SDS011;67902;52.154;5.430;2023-04-28T04:38:38;13.82;;;4.10;;
70899;SDS011;67902;52.154;5.430;2023-04-28T04:41:05;10.07;;;4.32;;
70899;SDS011;67902;52.154;5.430;2023-04-28T04:43:32;11.00;;;4.38;;
70899;SDS011;67902;52.154;5.430;2023-04-28T04:45:58;12.27;;;4.53;;
70899;SDS011;67902;52.154;5.430;2023-04-28T04:48:25;12.32;;;4.30;;
70899;SDS011;67902;52.154;5.430;2023-04-28T04:50:51;10.73;;;4.00;;
70899;SDS011;67902;52.154;5.430;2023-04-28T04:53:17;18.92;;;4.80;;
70899;SDS011;67902;52.154;5.430;2023-04-28T04:55:44;11.93;;;4.70;;
70899;SDS011;67902;52.154;5.430;2023-04-28T04:58:10;10.35;;;4.63;;
70899;SDS011;67902;52.154;5.430;2023-04-28T05:00:37;11.88;;;4.20;;
70899;SDS011;67902;52.154;5.430;2023-04-28T05:03:04;12.13;;;4.53;;
70899;SDS011;67902;52.154;5.430;2023-04-28T05:05:31;12.90;;;4.30;;
70899;SDS011;67902;52.154;5.430;2023-04-28T05:07:58;14.63;;;4.80;;
70899;SDS011;67902;52.154;5.430;2023-04-28T05:10:24;12.10;;;5.25;;
70899;SDS011;67902;52.154;5.430;2023-04-28T05:12:50;14.68;;;4.80;;
70899;SDS011;67902;52.154;5.430;2023-04-28T05:15:17;13.77;;;4.70;;
70899;SDS011;67902;52.154;5.430;2023-04-28T05:17:43;14.25;;;4.78;;
70899;SDS011;67902;52.154;5.430;2023-04-28T05:20:10;13.75;;;4.90;;
70899;SDS011;67902;52.154;5.430;2023-04-28T05:22:38;11.43;;;4.63;;
70899;SDS011;67902;52.154;5.430;2023-04-28T05:25:04;14.93;;;5.18;;
70899;SDS011;67902;52.154;5.430;2023-04-28T05:27:31;10.98;;;4.57;;
70899;SDS011;67902;52.154;5.430;2023-04-28T05:29:58;12.35;;;4.75;;
70899;SDS011;67902;52.154;5.430;2023-04-28T05:32:25;13.43;;;5.70;;
70899;SDS011;67902;52.154;5.430;2023-04-28T05:34:51;12.70;;;4.75;;
70899;SDS011;67902;52.154;5.430;2023-04-28T05:37:17;9.32;;;4.28;;
70899;SDS011;67902;52.154;5.430;2023-04-28T05:39:44;9.75;;;4.85;;
70899;SDS011;67902;52.154;5.430;2023-04-28T05:42:11;13.82;;;5.10;;
70899;SDS011;67902;52.154;5.430;2023-04-28T05:44:37;11.65;;;4.82;;
70899;SDS011;67902;52.154;5.430;2023-04-28T05:47:06;15.50;;;5.05;;
70899;SDS011;67902;52.154;5.430;2023-04-28T05:49:32;13.05;;;5.03;;
70899;SDS011;67902;52.154;5.430;2023-04-28T05:51:59;14.05;;;5.45;;
70899;SDS011;67902;52.154;5.430;2023-04-28T05:54:25;12.40;;;5.07;;
70899;SDS011;67902;52.154;5.430;2023-04-28T05:56:52;12.95;;;5.30;;
70899;SDS011;67902;52.154;5.430;2023-04-28T05:59:18;12.13;;;5.32;;
70899;SDS011;67902;52.154;5.430;2023-04-28T06:01:45;13.02;;;5.32;;
70899;SDS011;67902;52.154;5.430;2023-04-28T06:04:11;13.68;;;5.68;;
70899;SDS011;67902;52.154;5.430;2023-04-28T06:06:38;17.13;;;6.22;;
70899;SDS011;67902;52.154;5.430;2023-04-28T06:09:04;12.50;;;5.25;;
70899;SDS011;67902;52.154;5.430;2023-04-28T06:11:31;11.98;;;5.57;;
70899;SDS011;67902;52.154;5.430;2023-04-28T06:13:57;12.88;;;6.25;;
70899;SDS011;67902;52.154;5.430;2023-04-28T06:16:24;12.77;;;5.88;;
70899;SDS011;67902;52.154;5.430;2023-04-28T06:18:51;15.32;;;5.88;;
70899;SDS011;67902;52.154;5.430;2023-04-28T06:21:18;17.38;;;5.85;;
70899;SDS011;67902;52.154;5.430;2023-04-28T06:23:46;17.27;;;6.30;;
70899;SDS011;67902;52.154;5.430;2023-04-28T06:26:12;14.32;;;6.30;;
70899;SDS011;67902;52.154;5.430;2023-04-28T06:28:41;17.08;;;5.90;;
70899;SDS011;67902;52.154;5.430;2023-04-28T06:31:08;14.77;;;5.82;;
70899;SDS011;67902;52.154;5.430;2023-04-28T06:33:35;16.77;;;6.78;;
70899;SDS011;67902;52.154;5.430;2023-04-28T06:36:01;15.95;;;6.07;;
70899;SDS011;67902;52.154;5.430;2023-04-28T06:38:28;15.20;;;6.57;;
70899;SDS011;67902;52.154;5.430;2023-04-28T06:40:55;14.82;;;6.53;;
70899;SDS011;67902;52.154;5.430;2023-04-28T06:43:21;15.80;;;6.72;;
70899;SDS011;67902;52.154;5.430;2023-04-28T06:45:48;14.20;;;6.43;;
70899;SDS011;67902;52.154;5.430;2023-04-28T06:48:14;13.65;;;6.30;;
70899;SDS011;67902;52.154;5.430;2023-04-28T06:50:41;17.48;;;7.22;;
70899;SDS011;67902;52.154;5.430;2023-04-28T06:53:09;15.43;;;6.82;;
70899;SDS011;67902;52.154;5.430;2023-04-28T06:55:35;14.43;;;6.97;;
70899;SDS011;67902;52.154;5.430;2023-04-28T06:58:02;14.80;;;6.35;;
70899;SDS011;67902;52.154;5.430;2023-04-28T07:00:28;20.70;;;7.60;;
70899;SDS011;67902;52.154;5.430;2023-04-28T07:02:55;16.35;;;7.30;;
70899;SDS011;67902;52.154;5.430;2023-04-28T07:05:21;17.90;;;7.68;;
70899;SDS011;67902;52.154;5.430;2023-04-28T07:07:48;20.00;;;7.95;;
70899;SDS011;67902;52.154;5.430;2023-04-28T07:10:14;18.45;;;8.38;;
70899;SDS011;67902;52.154;5.430;2023-04-28T07:12:41;17.90;;;8.05;;
70899;SDS011;67902;52.154;5.430;2023-04-28T07:15:07;16.77;;;7.63;;
70899;SDS011;67902;52.154;5.430;2023-04-28T07:17:35;16.20;;;8.15;;
70899;SDS011;67902;52.154;5.430;2023-04-28T07:20:02;20.20;;;9.23;;
70899;SDS011;67902;52.154;5.430;2023-04-28T07:22:30;19.00;;;8.80;;
70899;SDS011;67902;52.154;5.430;2023-04-28T07:24:56;17.17;;;8.07;;
70899;SDS011;67902;52.154;5.430;2023-04-28T07:27:23;15.77;;;9.13;;
70899;SDS011;67902;52.154;5.430;2023-04-28T07:29:49;23.42;;;8.95;;
70899;SDS011;67902;52.154;5.430;2023-04-28T07:32:15;17.33;;;8.35;;
70899;SDS011;67902;52.154;5.430;2023-04-28T07:34:42;17.45;;;8.45;;
70899;SDS011;67902;52.154;5.430;2023-04-28T07:37:08;22.88;;;8.80;;
70899;SDS011;67902;52.154;5.430;2023-04-28T07:39:36;19.45;;;9.05;;
70899;SDS011;67902;52.154;5.430;2023-04-28T07:42:05;20.95;;;9.18;;
70899;SDS011;67902;52.154;5.430;2023-04-28T07:44:31;18.63;;;9.43;;
70899;SDS011;67902;52.154;5.430;2023-04-28T07:46:58;21.40;;;9.45;;
70899;SDS011;67902;52.154;5.430;2023-04-28T07:51:53;18.40;;;8.50;;
70899;SDS011;67902;52.154;5.430;2023-04-28T07:54:20;20.92;;;8.95;;
70899;SDS011;67902;52.154;5.430;2023-04-28T07:56:47;16.92;;;8.30;;
70899;SDS011;67902;52.154;5.430;2023-04-28T07:59:13;21.45;;;8.90;;
70899;SDS011;67902;52.154;5.430;2023-04-28T08:01:40;19.48;;;9.35;;
70899;SDS011;67902;52.154;5.430;2023-04-28T08:04:08;18.40;;;9.52;;
70899;SDS011;67902;52.154;5.430;2023-04-28T08:06:35;20.10;;;10.18;;
70899;SDS011;67902;52.154;5.430;2023-04-28T08:09:01;20.85;;;9.88;;
70899;SDS011;67902;52.154;5.430;2023-04-28T08:11:28;17.08;;;9.20;;
70899;SDS011;67902;52.154;5.430;2023-04-28T08:13:55;17.05;;;9.73;;
70899;SDS011;67902;52.154;5.430;2023-04-28T08:16:26;18.52;;;8.95;;
70899;SDS011;67902;52.154;5.430;2023-04-28T08:18:53;21.60;;;9.57;;
70899;SDS011;67902;52.154;5.430;2023-04-28T08:21:20;18.52;;;9.00;;
70899;SDS011;67902;52.154;5.430;2023-04-28T08:23:46;18.30;;;8.88;;
70899;SDS011;67902;52.154;5.430;2023-04-28T08:26:12;20.67;;;10.38;;
70899;SDS011;67902;52.154;5.430;2023-04-28T08:28:39;19.83;;;9.40;;
70899;SDS011;67902;52.154;5.430;2023-04-28T08:31:05;22.50;;;10.45;;
70899;SDS011;67902;52.154;5.430;2023-04-28T08:33:32;21.15;;;10.38;;
70899;SDS011;67902;52.154;5.430;2023-04-28T08:35:58;18.90;;;9.50;;
70899;SDS011;67902;52.154;5.430;2023-04-28T08:38:25;19.60;;;9.57;;
70899;SDS011;67902;52.154;5.430;2023-04-28T08:40:52;20.35;;;11.30;;
70899;SDS011;67902;52.154;5.430;2023-04-28T08:43:18;22.38;;;10.55;;
70899;SDS011;67902;52.154;5.430;2023-04-28T08:45:46;22.17;;;10.88;;
70899;SDS011;67902;52.154;5.430;2023-04-28T08:48:16;19.52;;;10.77;;
70899;SDS011;67902;52.154;5.430;2023-04-28T08:50:48;23.25;;;11.20;;
70899;SDS011;67902;52.154;5.430;2023-04-28T08:53:23;22.80;;;11.90;;
70899;SDS011;67902;52.154;5.430;2023-04-28T08:55:51;23.38;;;11.25;;
70899;SDS011;67902;52.154;5.430;2023-04-28T08:58:22;24.42;;;10.95;;
70899;SDS011;67902;52.154;5.430;2023-04-28T09:00:50;21.90;;;10.52;;
70899;SDS011;67902;52.154;5.430;2023-04-28T09:03:17;21.52;;;11.75;;
70899;SDS011;67902;52.154;5.430;2023-04-28T09:05:44;24.77;;;11.52;;
70899;SDS011;67902;52.154;5.430;2023-04-28T09:08:11;22.55;;;12.13;;
70899;SDS011;67902;52.154;5.430;2023-04-28T09:10:38;24.17;;;11.73;;
70899;SDS011;67902;52.154;5.430;2023-04-28T09:13:05;23.33;;;11.55;;
70899;SDS011;67902;52.154;5.430;2023-04-28T09:15:32;21.75;;;11.48;;
70899;SDS011;67902;52.154;5.430;2023-04-28T09:18:00;22.25;;;12.20;;
70899;SDS011;67902;52.154;5.430;2023-04-28T09:20:30;23.65;;;11.45;;
70899;SDS011;67902;52.154;5.430;2023-04-28T09:23:16;23.63;;;12.35;;
70899;SDS011;67902;52.154;5.430;2023-04-28T09:26:05;26.17;;;12.98;;
70899;SDS011;67902;52.154;5.430;2023-04-28T09:28:33;20.73;;;11.90;;
70899;SDS011;67902;52.154;5.430;2023-04-28T09:31:01;23.73;;;12.55;;
70899;SDS011;67902;52.154;5.430;2023-04-28T09:33:27;25.75;;;13.07;;
70899;SDS011;67902;52.154;5.430;2023-04-28T09:35:54;25.40;;;12.68;;
70899;SDS011;67902;52.154;5.430;2023-04-28T09:38:21;24.13;;;13.10;;
70899;SDS011;67902;52.154;5.430;2023-04-28T09:40:58;24.63;;;12.55;;
70899;SDS011;67902;52.154;5.430;2023-04-28T09:43:33;27.48;;;13.55;;
70899;SDS011;67902;52.154;5.430;2023-04-28T09:46:01;25.83;;;13.32;;
70899;SDS011;67902;52.154;5.430;2023-04-28T09:48:32;27.52;;;13.10;;
70899;SDS011;67902;52.154;5.430;2023-04-28T09:51:01;25.40;;;13.85;;
70899;SDS011;67902;52.154;5.430;2023-04-28T09:53:29;25.25;;;14.10;;
70899;SDS011;67902;52.154;5.430;2023-04-28T09:55:57;28.10;;;13.32;;
70899;SDS011;67902;52.154;5.430;2023-04-28T09:58:25;28.52;;;14.65;;
70899;SDS011;67902;52.154;5.430;2023-04-28T10:00:56;24.20;;;12.07;;
70899;SDS011;67902;52.154;5.430;2023-04-28T10:03:24;22.70;;;13.55;;
70899;SDS011;67902;52.154;5.430;2023-04-28T10:05:56;24.45;;;12.80;;
70899;SDS011;67902;52.154;5.430;2023-04-28T10:08:24;28.17;;;14.05;;
70899;SDS011;67902;52.154;5.430;2023-04-28T10:10:52;19.88;;;12.23;;
70899;SDS011;67902;52.154;5.430;2023-04-28T10:15:47;22.30;;;11.63;;
70899;SDS011;67902;52.154;5.430;2023-04-28T10:18:15;21.08;;;11.55;;
70899;SDS011;67902;52.154;5.430;2023-04-28T10:20:42;22.83;;;11.80;;
70899;SDS011;67902;52.154;5.430;2023-04-28T10:26:04;19.15;;;11.70;;
70899;SDS011;67902;52.154;5.430;2023-04-28T10:28:35;21.10;;;11.50;;
70899;SDS011;67902;52.154;5.430;2023-04-28T10:31:12;18.20;;;10.57;;
70899;SDS011;67902;52.154;5.430;2023-04-28T10:33:48;18.83;;;10.35;;
70899;SDS011;67902;52.154;5.430;2023-04-28T10:39:18;18.60;;;10.27;;
70899;SDS011;67902;52.154;5.430;2023-04-28T10:41:45;17.67;;;10.07;;
70899;SDS011;67902;52.154;5.430;2023-04-28T10:44:39;16.85;;;9.68;;
70899;SDS011;67902;52.154;5.430;2023-04-28T10:47:07;15.73;;;8.93;;
70899;SDS011;67902;52.154;5.430;2023-04-28T10:58:29;16.23;;;9.00;;
70899;SDS011;67902;52.154;5.430;2023-04-28T11:00:42;16.70;;;9.13;;
70899;SDS011;67902;52.154;5.430;2023-04-28T11:06:16;13.20;;;7.60;;
70899;SDS011;67902;52.154;5.430;2023-04-28T11:08:44;16.95;;;8.00;;
70899;SDS011;67902;52.154;5.430;2023-04-28T11:11:11;13.00;;;7.28;;
70899;SDS011;67902;52.154;5.430;2023-04-28T11:13:38;14.38;;;7.30;;
70899;SDS011;67902;52.154;5.430;2023-04-28T11:16:07;15.20;;;7.68;;
70899;SDS011;67902;52.154;5.430;2023-04-28T11:18:42;14.18;;;8.02;;
70899;SDS011;67902;52.154;5.430;2023-04-28T11:21:21;15.25;;;7.97;;
70899;SDS011;67902;52.154;5.430;2023-04-28T11:23:48;14.55;;;7.13;;
70899;SDS011;67902;52.154;5.430;2023-04-28T11:26:15;14.35;;;7.65;;
70899;SDS011;67902;52.154;5.430;2023-04-28T11:28:46;15.90;;;8.20;;
70899;SDS011;67902;52.154;5.430;2023-04-28T11:31:17;13.35;;;6.70;;
70899;SDS011;67902;52.154;5.430;2023-04-28T11:33:46;13.82;;;7.35;;
70899;SDS011;67902;52.154;5.430;2023-04-28T11:36:23;13.23;;;7.32;;
70899;SDS011;67902;52.154;5.430;2023-04-28T11:38:50;14.45;;;7.18;;
70899;SDS011;67902;52.154;5.430;2023-04-28T11:41:16;13.90;;;6.88;;
70899;SDS011;67902;52.154;5.430;2023-04-28T11:43:43;14.45;;;7.07;;
70899;SDS011;67902;52.154;5.430;2023-04-28T11:46:19;15.15;;;7.30;;
70899;SDS011;67902;52.154;5.430;2023-04-28T11:48:47;13.68;;;6.28;;
70899;SDS011;67902;52.154;5.430;2023-04-28T11:56:46;16.38;;;7.30;;
70899;SDS011;67902;52.154;5.430;2023-04-28T11:59:12;16.95;;;7.15;;
70899;SDS011;67902;52.154;5.430;2023-04-28T12:01:49;16.23;;;6.20;;
70899;SDS011;67902;52.154;5.430;2023-04-28T12:04:30;15.60;;;6.43;;
70899;SDS011;67902;52.154;5.430;2023-04-28T12:12:12;14.23;;;6.45;;
70899;SDS011;67902;52.154;5.430;2023-04-28T12:15:02;14.40;;;6.07;;
70899;SDS011;67902;52.154;5.430;2023-04-28T12:17:32;12.40;;;5.75;;
70899;SDS011;67902;52.154;5.430;2023-04-28T12:19:59;12.68;;;5.82;;
70899;SDS011;67902;52.154;5.430;2023-04-28T12:22:27;10.85;;;4.90;;
70899;SDS011;67902;52.154;5.430;2023-04-28T12:25:01;11.20;;;4.70;;
70899;SDS011;67902;52.154;5.430;2023-04-28T12:27:28;10.50;;;4.85;;
70899;SDS011;67902;52.154;5.430;2023-04-28T12:29:54;9.15;;;3.92;;
70899;SDS011;67902;52.154;5.430;2023-04-28T12:32:35;9.95;;;4.35;;
70899;SDS011;67902;52.154;5.430;2023-04-28T12:35:08;9.80;;;4.30;;
70899;SDS011;67902;52.154;5.430;2023-04-28T12:37:34;9.88;;;4.18;;
70899;SDS011;67902;52.154;5.430;2023-04-28T12:40:03;12.48;;;4.97;;
70899;SDS011;67902;52.154;5.430;2023-04-28T12:42:31;10.80;;;4.40;;
70899;SDS011;67902;52.154;5.430;2023-04-28T12:44:57;11.07;;;4.47;;
70899;SDS011;67902;52.154;5.430;2023-04-28T12:47:24;8.07;;;3.50;;
70899;SDS011;67902;52.154;5.430;2023-04-28T12:49:51;9.90;;;3.83;;
70899;SDS011;67902;52.154;5.430;2023-04-28T12:52:18;9.18;;;3.28;;
70899;SDS011;67902;52.154;5.430;2023-04-28T12:54:45;7.53;;;3.55;;
70899;SDS011;67902;52.154;5.430;2023-04-28T12:57:13;8.38;;;3.55;;
70899;SDS011;67902;52.154;5.430;2023-04-28T12:59:40;7.63;;;3.50;;
70899;SDS011;67902;52.154;5.430;2023-04-28T13:02:06;8.45;;;3.72;;
70899;SDS011;67902;52.154;5.430;2023-04-28T13:04:33;9.60;;;3.53;;
70899;SDS011;67902;52.154;5.430;2023-04-28T13:07:00;7.65;;;3.35;;
70899;SDS011;67902;52.154;5.430;2023-04-28T13:09:27;8.55;;;4.05;;
70899;SDS011;67902;52.154;5.430;2023-04-28T13:11:53;9.48;;;4.55;;
70899;SDS011;67902;52.154;5.430;2023-04-28T13:14:20;8.65;;;4.38;;
70899;SDS011;67902;52.154;5.430;2023-04-28T13:16:47;8.85;;;4.18;;
70899;SDS011;67902;52.154;5.430;2023-04-28T13:19:14;9.25;;;4.82;;
70899;SDS011;67902;52.154;5.430;2023-04-28T13:21:40;8.35;;;3.80;;
70899;SDS011;67902;52.154;5.430;2023-04-28T13:24:07;8.82;;;4.45;;
70899;SDS011;67902;52.154;5.430;2023-04-28T13:26:34;8.02;;;4.22;;
70899;SDS011;67902;52.154;5.430;2023-04-28T13:29:01;10.43;;;4.45;;
70899;SDS011;67902;52.154;5.430;2023-04-28T13:31:29;7.82;;;4.28;;
70899;SDS011;67902;52.154;5.430;2023-04-28T13:33:56;8.15;;;4.15;;
70899;SDS011;67902;52.154;5.430;2023-04-28T13:36:23;7.32;;;4.18;;
70899;SDS011;67902;52.154;5.430;2023-04-28T13:38:50;7.80;;;3.83;;
70899;SDS011;67902;52.154;5.430;2023-04-28T13:41:17;8.07;;;4.07;;
70899;SDS011;67902;52.154;5.430;2023-04-28T13:43:44;7.70;;;4.05;;
70899;SDS011;67902;52.154;5.430;2023-04-28T13:46:10;7.57;;;4.03;;
70899;SDS011;67902;52.154;5.430;2023-04-28T13:48:37;7.13;;;4.20;;
70899;SDS011;67902;52.154;5.430;2023-04-28T13:53:31;6.45;;;3.45;;
70899;SDS011;67902;52.154;5.430;2023-04-28T13:55:58;6.47;;;3.55;;
70899;SDS011;67902;52.154;5.430;2023-04-28T13:58:25;6.32;;;3.45;;
70899;SDS011;67902;52.154;5.430;2023-04-28T14:00:52;7.00;;;3.30;;
70899;SDS011;67902;52.154;5.430;2023-04-28T14:03:22;7.22;;;3.22;;
70899;SDS011;67902;52.154;5.430;2023-04-28T14:05:50;5.00;;;2.30;;
70899;SDS011;67902;52.154;5.430;2023-04-28T14:08:18;5.03;;;2.20;;
70899;SDS011;67902;52.154;5.430;2023-04-28T14:10:46;5.43;;;2.05;;
70899;SDS011;67902;52.154;5.430;2023-04-28T14:13:16;5.68;;;2.13;;
70899;SDS011;67902;52.154;5.430;2023-04-28T14:15:43;4.97;;;1.95;;
70899;SDS011;67902;52.154;5.430;2023-04-28T14:18:23;6.03;;;2.15;;
70899;SDS011;67902;52.154;5.430;2023-04-28T14:20:50;5.10;;;2.10;;
70899;SDS011;67902;52.154;5.430;2023-04-28T14:23:17;5.70;;;2.15;;
70899;SDS011;67902;52.154;5.430;2023-04-28T14:25:43;5.40;;;2.15;;
70899;SDS011;67902;52.154;5.430;2023-04-28T14:28:10;5.97;;;2.15;;
70899;SDS011;67902;52.154;5.430;2023-04-28T14:30:36;5.93;;;2.25;;
70899;SDS011;67902;52.154;5.430;2023-04-28T14:33:03;5.43;;;2.22;;
70899;SDS011;67902;52.154;5.430;2023-04-28T14:35:30;6.15;;;2.25;;
70899;SDS011;67902;52.154;5.430;2023-04-28T14:37:57;7.22;;;2.53;;
70899;SDS011;67902;52.154;5.430;2023-04-28T14:40:24;7.63;;;3.03;;
70899;SDS011;67902;52.154;5.430;2023-04-28T14:42:50;8.82;;;4.13;;
70899;SDS011;67902;52.154;5.430;2023-04-28T14:45:18;8.60;;;3.45;;
70899;SDS011;67902;52.154;5.430;2023-04-28T14:47:44;9.23;;;3.53;;
70899;SDS011;67902;52.154;5.430;2023-04-28T14:50:11;11.10;;;3.92;;
70899;SDS011;67902;52.154;5.430;2023-04-28T14:52:39;10.93;;;4.40;;
70899;SDS011;67902;52.154;5.430;2023-04-28T14:55:06;11.57;;;4.45;;
70899;SDS011;67902;52.154;5.430;2023-04-28T14:57:33;11.43;;;4.85;;
70899;SDS011;67902;52.154;5.430;2023-04-28T15:00:00;14.13;;;5.22;;
70899;SDS011;67902;52.154;5.430;2023-04-28T15:02:29;14.60;;;5.47;;
70899;SDS011;67902;52.154;5.430;2023-04-28T15:04:55;13.57;;;5.78;;
70899;SDS011;67902;52.154;5.430;2023-04-28T15:07:22;13.10;;;5.47;;
70899;SDS011;67902;52.154;5.430;2023-04-28T15:09:53;15.13;;;6.15;;
70899;SDS011;67902;52.154;5.430;2023-04-28T15:12:19;14.02;;;5.15;;
70899;SDS011;67902;52.154;5.430;2023-04-28T15:14:46;14.32;;;5.10;;
70899;SDS011;67902;52.154;5.430;2023-04-28T15:17:13;14.40;;;5.40;;